sensor_id;sensor_type;location;lat;lon;timestamp;pressure;altitude;pressure_sealevel;temperature;humidity
36454;BME280;22478;51.740;-1.314;2023-03-14T00:01:36;97582.18;;;-1.46;100.00
36454;BME280;22478;51.740;-1.314;2023-03-14T00:04:04;97589.90;;;-2.19;100.00
36454;BME280;22478;51.740;-1.314;2023-03-14T00:06:31;97602.11;;;-1.51;100.00
36454;BME280;22478;51.740;-1.314;2023-03-14T00:08:58;97600.77;;;-1.44;100.00
36454;BME280;22478;51.740;-1.314;2023-03-14T00:11:26;97607.02;;;-0.97;100.00
36454;BME280;22478;51.740;-1.314;2023-03-14T00:13:53;97612.01;;;-1.68;100.00
36454;BME280;22478;51.740;-1.314;2023-03-14T00:16:21;97622.54;;;-0.93;100.00
36454;BME280;22478;51.740;-1.314;2023-03-14T00:18:48;97629.85;;;-1.01;100.00
36454;BME280;22478;51.740;-1.314;2023-03-14T00:21:15;97637.97;;;-1.54;100.00
36454;BME280;22478;51.740;-1.314;2023-03-14T00:23:43;97641.08;;;-1.08;100.00
36454;BME280;22478;51.740;-1.314;2023-03-14T00:26:13;97650.08;;;-0.95;100.00
36454;BME280;22478;51.740;-1.314;2023-03-14T00:28:42;97665.60;;;-1.75;100.00
36454;BME280;22478;51.740;-1.314;2023-03-14T00:31:12;97673.92;;;-1.07;100.00
36454;BME280;22478;51.740;-1.314;2023-03-14T00:33:40;97686.01;;;-1.41;100.00
36454;BME280;22478;51.740;-1.314;2023-03-14T00:36:10;97686.67;;;-1.41;100.00
36454;BME280;22478;51.740;-1.314;2023-03-14T00:38:39;97697.96;;;-1.48;100.00
36454;BME280;22478;51.740;-1.314;2023-03-14T00:41:08;97707.47;;;-1.02;100.00
36454;BME280;22478;51.740;-1.314;2023-03-14T00:43:36;97713.98;;;-1.31;100.00
36454;BME280;22478;51.740;-1.314;2023-03-14T00:46:05;97722.08;;;-2.18;100.00
36454;BME280;22478;51.740;-1.314;2023-03-14T00:48:32;97713.80;;;-1.63;100.00
36454;BME280;22478;51.740;-1.314;2023-03-14T00:50:59;97720.29;;;-1.50;100.00
36454;BME280;22478;51.740;-1.314;2023-03-14T00:53:26;97727.75;;;-1.58;100.00
36454;BME280;22478;51.740;-1.314;2023-03-14T00:55:54;97731.68;;;-1.08;100.00
36454;BME280;22478;51.740;-1.314;2023-03-14T00:58:21;97743.32;;;-2.12;100.00
36454;BME280;22478;51.740;-1.314;2023-03-14T01:00:49;97752.35;;;-1.86;100.00
36454;BME280;22478;51.740;-1.314;2023-03-14T01:03:16;97748.66;;;-1.49;100.00
36454;BME280;22478;51.740;-1.314;2023-03-14T01:05:43;97763.31;;;-1.22;100.00
36454;BME280;22478;51.740;-1.314;2023-03-14T01:08:11;97772.19;;;-1.79;100.00
36454;BME280;22478;51.740;-1.314;2023-03-14T01:10:39;97783.73;;;-2.05;100.00
36454;BME280;22478;51.740;-1.314;2023-03-14T01:13:07;97797.79;;;-2.19;100.00
36454;BME280;22478;51.740;-1.314;2023-03-14T01:15:36;97811.21;;;-2.11;100.00
36454;BME280;22478;51.740;-1.314;2023-03-14T01:18:04;97811.64;;;-2.28;100.00
36454;BME280;22478;51.740;-1.314;2023-03-14T01:20:32;97826.89;;;-2.43;100.00
36454;BME280;22478;51.740;-1.314;2023-03-14T01:22:59;97832.72;;;-2.41;100.00
36454;BME280;22478;51.740;-1.314;2023-03-14T01:25:26;97836.56;;;-2.29;100.00
36454;BME280;22478;51.740;-1.314;2023-03-14T01:27:54;97839.68;;;-2.45;100.00
36454;BME280;22478;51.740;-1.314;2023-03-14T01:30:21;97849.49;;;-2.34;100.00
36454;BME280;22478;51.740;-1.314;2023-03-14T01:32:49;97854.66;;;-1.68;100.00
36454;BME280;22478;51.740;-1.314;2023-03-14T01:35:16;97862.02;;;-1.72;100.00
36454;BME280;22478;51.740;-1.314;2023-03-14T01:37:44;97858.35;;;-1.82;100.00
36454;BME280;22478;51.740;-1.314;2023-03-14T01:40:11;97879.10;;;-2.71;100.00
36454;BME280;22478;51.740;-1.314;2023-03-14T01:42:45;97885.67;;;-3.03;100.00
36454;BME280;22478;51.740;-1.314;2023-03-14T01:46:28;97899.79;;;-2.59;100.00
36454;BME280;22478;51.740;-1.314;2023-03-14T01:49:02;97907.06;;;-2.54;100.00
36454;BME280;22478;51.740;-1.314;2023-03-14T01:51:36;97912.48;;;-2.52;100.00
36454;BME280;22478;51.740;-1.314;2023-03-14T01:54:11;97907.77;;;-1.96;100.00
36454;BME280;22478;51.740;-1.314;2023-03-14T01:56:39;97910.20;;;-1.75;100.00
36454;BME280;22478;51.740;-1.314;2023-03-14T01:59:08;97914.49;;;-2.60;100.00
36454;BME280;22478;51.740;-1.314;2023-03-14T02:01:38;97909.60;;;-2.06;100.00
36454;BME280;22478;51.740;-1.314;2023-03-14T02:04:09;97920.65;;;-2.02;100.00
36454;BME280;22478;51.740;-1.314;2023-03-14T02:06:44;97930.06;;;-3.01;100.00
36454;BME280;22478;51.740;-1.314;2023-03-14T02:09:12;97931.59;;;-3.11;100.00
36454;BME280;22478;51.740;-1.314;2023-03-14T02:11:39;97929.29;;;-2.73;100.00
36454;BME280;22478;51.740;-1.314;2023-03-14T02:14:08;97935.49;;;-2.60;100.00
36454;BME280;22478;51.740;-1.314;2023-03-14T02:16:41;97943.36;;;-3.37;100.00
36454;BME280;22478;51.740;-1.314;2023-03-14T02:19:10;97943.83;;;-2.27;100.00
36454;BME280;22478;51.740;-1.314;2023-03-14T02:21:47;97963.44;;;-3.47;100.00
36454;BME280;22478;51.740;-1.314;2023-03-14T02:24:20;97971.54;;;-3.82;100.00
36454;BME280;22478;51.740;-1.314;2023-03-14T02:27:10;97984.22;;;-3.23;100.00
36454;BME280;22478;51.740;-1.314;2023-03-14T02:29:43;97988.44;;;-2.84;100.00
36454;BME280;22478;51.740;-1.314;2023-03-14T02:32:13;97990.99;;;-2.78;100.00
36454;BME280;22478;51.740;-1.314;2023-03-14T02:34:43;97997.17;;;-3.20;100.00
36454;BME280;22478;51.740;-1.314;2023-03-14T02:37:12;97999.73;;;-3.26;100.00
36454;BME280;22478;51.740;-1.314;2023-03-14T02:39:42;97999.86;;;-2.49;100.00
36454;BME280;22478;51.740;-1.314;2023-03-14T02:42:11;98000.53;;;-3.34;100.00
36454;BME280;22478;51.740;-1.314;2023-03-14T02:44:48;98013.71;;;-4.39;100.00
36454;BME280;22478;51.740;-1.314;2023-03-14T02:47:20;98009.07;;;-3.13;100.00
36454;BME280;22478;51.740;-1.314;2023-03-14T02:49:51;98021.22;;;-3.74;100.00
36454;BME280;22478;51.740;-1.314;2023-03-14T02:52:21;98034.75;;;-4.20;100.00
36454;BME280;22478;51.740;-1.314;2023-03-14T02:54:48;98040.03;;;-3.96;100.00
36454;BME280;22478;51.740;-1.314;2023-03-14T02:57:15;98049.35;;;-3.70;100.00
36454;BME280;22478;51.740;-1.314;2023-03-14T02:59:43;98058.50;;;-4.10;100.00
36454;BME280;22478;51.740;-1.314;2023-03-14T03:02:10;98061.06;;;-4.26;100.00
36454;BME280;22478;51.740;-1.314;2023-03-14T03:04:38;98075.65;;;-4.51;100.00
36454;BME280;22478;51.740;-1.314;2023-03-14T03:07:05;98083.33;;;-3.54;100.00
36454;BME280;22478;51.740;-1.314;2023-03-14T03:09:32;98089.57;;;-3.40;100.00
36454;BME280;22478;51.740;-1.314;2023-03-14T03:11:59;98096.25;;;-4.55;100.00
36454;BME280;22478;51.740;-1.314;2023-03-14T03:14:26;98107.15;;;-3.75;100.00
36454;BME280;22478;51.740;-1.314;2023-03-14T03:16:54;98110.48;;;-4.71;100.00
36454;BME280;22478;51.740;-1.314;2023-03-14T03:19:21;98115.51;;;-4.12;100.00
36454;BME280;22478;51.740;-1.314;2023-03-14T03:21:49;98118.72;;;-4.56;100.00
36454;BME280;22478;51.740;-1.314;2023-03-14T03:24:16;98123.63;;;-4.73;100.00
36454;BME280;22478;51.740;-1.314;2023-03-14T03:26:44;98121.73;;;-3.96;100.00
36454;BME280;22478;51.740;-1.314;2023-03-14T03:29:11;98123.89;;;-4.36;100.00
36454;BME280;22478;51.740;-1.314;2023-03-14T03:31:39;98137.55;;;-4.73;100.00
36454;BME280;22478;51.740;-1.314;2023-03-14T03:34:06;98136.14;;;-3.38;100.00
36454;BME280;22478;51.740;-1.314;2023-03-14T03:36:33;98147.51;;;-3.98;100.00
36454;BME280;22478;51.740;-1.314;2023-03-14T03:39:01;98152.94;;;-4.28;100.00
36454;BME280;22478;51.740;-1.314;2023-03-14T03:41:28;98158.25;;;-4.56;100.00
36454;BME280;22478;51.740;-1.314;2023-03-14T03:43:55;98160.26;;;-3.64;100.00
36454;BME280;22478;51.740;-1.314;2023-03-14T03:46:22;98175.49;;;-5.33;100.00
36454;BME280;22478;51.740;-1.314;2023-03-14T03:48:54;98173.66;;;-4.71;100.00
36454;BME280;22478;51.740;-1.314;2023-03-14T03:51:21;98183.61;;;-4.44;100.00
36454;BME280;22478;51.740;-1.314;2023-03-14T03:53:48;98183.54;;;-4.03;100.00
36454;BME280;22478;51.740;-1.314;2023-03-14T03:56:16;98194.53;;;-4.38;100.00
36454;BME280;22478;51.740;-1.314;2023-03-14T03:58:43;98193.77;;;-5.18;100.00
36454;BME280;22478;51.740;-1.314;2023-03-14T04:01:11;98198.20;;;-4.85;100.00
36454;BME280;22478;51.740;-1.314;2023-03-14T04:03:38;98204.71;;;-4.38;100.00
36454;BME280;22478;51.740;-1.314;2023-03-14T04:06:09;98201.98;;;-4.35;100.00
36454;BME280;22478;51.740;-1.314;2023-03-14T04:08:37;98205.90;;;-4.20;100.00
36454;BME280;22478;51.740;-1.314;2023-03-14T04:11:05;98217.59;;;-5.46;100.00
36454;BME280;22478;51.740;-1.314;2023-03-14T04:13:32;98223.32;;;-5.28;100.00
36454;BME280;22478;51.740;-1.314;2023-03-14T04:15:59;98226.71;;;-3.30;100.00
36454;BME280;22478;51.740;-1.314;2023-03-14T04:18:27;98232.54;;;-4.93;100.00
36454;BME280;22478;51.740;-1.314;2023-03-14T04:20:56;98235.37;;;-3.45;100.00
36454;BME280;22478;51.740;-1.314;2023-03-14T04:23:24;98247.18;;;-5.32;100.00
36454;BME280;22478;51.740;-1.314;2023-03-14T04:25:51;98251.57;;;-4.71;100.00
36454;BME280;22478;51.740;-1.314;2023-03-14T04:28:18;98254.14;;;-4.33;100.00
36454;BME280;22478;51.740;-1.314;2023-03-14T04:30:45;98260.39;;;-5.14;100.00
36454;BME280;22478;51.740;-1.314;2023-03-14T04:33:12;98266.43;;;-4.71;100.00
36454;BME280;22478;51.740;-1.314;2023-03-14T04:35:40;98272.04;;;-4.83;100.00
36454;BME280;22478;51.740;-1.314;2023-03-14T04:38:07;98271.85;;;-4.88;100.00
36454;BME280;22478;51.740;-1.314;2023-03-14T04:40:36;98279.13;;;-3.93;100.00
36454;BME280;22478;51.740;-1.314;2023-03-14T04:43:04;98287.51;;;-5.35;100.00
36454;BME280;22478;51.740;-1.314;2023-03-14T04:45:31;98291.48;;;-4.49;100.00
36454;BME280;22478;51.740;-1.314;2023-03-14T04:47:58;98302.61;;;-5.59;100.00
36454;BME280;22478;51.740;-1.314;2023-03-14T04:50:25;98314.50;;;-4.37;100.00
36454;BME280;22478;51.740;-1.314;2023-03-14T04:52:52;98314.01;;;-4.11;100.00
36454;BME280;22478;51.740;-1.314;2023-03-14T04:55:19;98316.57;;;-4.88;100.00
36454;BME280;22478;51.740;-1.314;2023-03-14T04:57:47;98316.43;;;-4.71;100.00
36454;BME280;22478;51.740;-1.314;2023-03-14T05:00:14;98319.48;;;-4.73;100.00
36454;BME280;22478;51.740;-1.314;2023-03-14T05:02:41;98325.90;;;-5.06;100.00
36454;BME280;22478;51.740;-1.314;2023-03-14T05:05:08;98330.46;;;-4.39;100.00
36454;BME280;22478;51.740;-1.314;2023-03-14T05:07:36;98336.43;;;-4.20;100.00
36454;BME280;22478;51.740;-1.314;2023-03-14T05:10:03;98340.96;;;-3.74;100.00
36454;BME280;22478;51.740;-1.314;2023-03-14T05:12:31;98345.67;;;-3.15;100.00
36454;BME280;22478;51.740;-1.314;2023-03-14T05:14:58;98352.92;;;-3.58;100.00
36454;BME280;22478;51.740;-1.314;2023-03-14T05:17:26;98358.60;;;-4.13;100.00
36454;BME280;22478;51.740;-1.314;2023-03-14T05:19:53;98366.09;;;-5.50;100.00
36454;BME280;22478;51.740;-1.314;2023-03-14T05:22:20;98372.74;;;-4.57;100.00
36454;BME280;22478;51.740;-1.314;2023-03-14T05:24:47;98377.81;;;-3.35;100.00
36454;BME280;22478;51.740;-1.314;2023-03-14T05:27:14;98382.75;;;-4.26;100.00
36454;BME280;22478;51.740;-1.314;2023-03-14T05:29:41;98389.01;;;-5.28;100.00
36454;BME280;22478;51.740;-1.314;2023-03-14T05:32:09;98389.52;;;-5.02;100.00
36454;BME280;22478;51.740;-1.314;2023-03-14T05:34:37;98403.76;;;-4.38;100.00
36454;BME280;22478;51.740;-1.314;2023-03-14T05:37:04;98397.14;;;-4.61;100.00
36454;BME280;22478;51.740;-1.314;2023-03-14T05:39:32;98401.63;;;-4.72;100.00
36454;BME280;22478;51.740;-1.314;2023-03-14T05:41:59;98400.18;;;-4.26;100.00
36454;BME280;22478;51.740;-1.314;2023-03-14T05:44:26;98401.90;;;-4.13;100.00
36454;BME280;22478;51.740;-1.314;2023-03-14T05:46:54;98410.14;;;-4.97;100.00
36454;BME280;22478;51.740;-1.314;2023-03-14T05:49:21;98414.63;;;-5.44;100.00
36454;BME280;22478;51.740;-1.314;2023-03-14T05:51:48;98426.06;;;-4.42;100.00
36454;BME280;22478;51.740;-1.314;2023-03-14T05:54:15;98432.20;;;-5.79;100.00
36454;BME280;22478;51.740;-1.314;2023-03-14T05:56:43;98445.81;;;-5.04;100.00
36454;BME280;22478;51.740;-1.314;2023-03-14T05:59:10;98451.45;;;-3.87;100.00
36454;BME280;22478;51.740;-1.314;2023-03-14T06:01:37;98461.60;;;-5.30;100.00
36454;BME280;22478;51.740;-1.314;2023-03-14T06:04:05;98468.51;;;-5.13;100.00
36454;BME280;22478;51.740;-1.314;2023-03-14T06:06:32;98472.87;;;-5.74;100.00
36454;BME280;22478;51.740;-1.314;2023-03-14T06:08:59;98466.12;;;-3.52;100.00
36454;BME280;22478;51.740;-1.314;2023-03-14T06:11:27;98477.34;;;-3.59;100.00
36454;BME280;22478;51.740;-1.314;2023-03-14T06:13:54;98483.72;;;-4.80;100.00
36454;BME280;22478;51.740;-1.314;2023-03-14T06:16:21;98492.95;;;-4.41;100.00
36454;BME280;22478;51.740;-1.314;2023-03-14T06:18:48;98500.99;;;-4.27;100.00
36454;BME280;22478;51.740;-1.314;2023-03-14T06:21:15;98503.37;;;-4.25;100.00
36454;BME280;22478;51.740;-1.314;2023-03-14T06:23:43;98512.37;;;-4.69;100.00
36454;BME280;22478;51.740;-1.314;2023-03-14T06:26:10;98519.38;;;-4.33;100.00
36454;BME280;22478;51.740;-1.314;2023-03-14T06:28:38;98528.48;;;-4.78;100.00
36454;BME280;22478;51.740;-1.314;2023-03-14T06:31:06;98535.53;;;-4.84;100.00
36454;BME280;22478;51.740;-1.314;2023-03-14T06:33:33;98533.17;;;-3.29;100.00
36454;BME280;22478;51.740;-1.314;2023-03-14T06:36:00;98546.24;;;-4.91;100.00
36454;BME280;22478;51.740;-1.314;2023-03-14T06:38:28;98564.27;;;-5.28;100.00
36454;BME280;22478;51.740;-1.314;2023-03-14T06:40:55;98570.32;;;-4.35;100.00
36454;BME280;22478;51.740;-1.314;2023-03-14T06:43:22;98578.22;;;-4.96;100.00
36454;BME280;22478;51.740;-1.314;2023-03-14T06:45:49;98580.24;;;-3.74;100.00
36454;BME280;22478;51.740;-1.314;2023-03-14T06:48:17;98592.31;;;-4.52;100.00
36454;BME280;22478;51.740;-1.314;2023-03-14T06:50:44;98598.95;;;-3.90;100.00
36454;BME280;22478;51.740;-1.314;2023-03-14T06:53:11;98605.72;;;-2.66;100.00
36454;BME280;22478;51.740;-1.314;2023-03-14T06:55:38;98622.84;;;-4.47;100.00
36454;BME280;22478;51.740;-1.314;2023-03-14T06:58:05;98640.70;;;-4.86;100.00
36454;BME280;22478;51.740;-1.314;2023-03-14T07:00:32;98650.07;;;-4.89;100.00
36454;BME280;22478;51.740;-1.314;2023-03-14T07:03:00;98663.37;;;-4.43;100.00
36454;BME280;22478;51.740;-1.314;2023-03-14T07:05:27;98672.42;;;-5.02;100.00
36454;BME280;22478;51.740;-1.314;2023-03-14T07:07:55;98677.34;;;-3.45;100.00
36454;BME280;22478;51.740;-1.314;2023-03-14T07:10:23;98678.24;;;-4.01;100.00
36454;BME280;22478;51.740;-1.314;2023-03-14T07:12:50;98685.28;;;-3.55;100.00
36454;BME280;22478;51.740;-1.314;2023-03-14T07:15:17;98695.81;;;-4.66;100.00
36454;BME280;22478;51.740;-1.314;2023-03-14T07:17:44;98705.77;;;-4.65;100.00
36454;BME280;22478;51.740;-1.314;2023-03-14T07:20:12;98717.75;;;-4.71;100.00
36454;BME280;22478;51.740;-1.314;2023-03-14T07:22:39;98739.35;;;-5.05;100.00
36454;BME280;22478;51.740;-1.314;2023-03-14T07:25:08;98744.20;;;-4.05;100.00
36454;BME280;22478;51.740;-1.314;2023-03-14T07:27:36;98755.51;;;-4.90;100.00
36454;BME280;22478;51.740;-1.314;2023-03-14T07:30:04;98770.71;;;-5.59;100.00
36454;BME280;22478;51.740;-1.314;2023-03-14T07:32:32;98783.15;;;-4.50;100.00
36454;BME280;22478;51.740;-1.314;2023-03-14T07:35:00;98797.97;;;-5.35;100.00
36454;BME280;22478;51.740;-1.314;2023-03-14T07:37:26;98803.11;;;-4.98;100.00
36454;BME280;22478;51.740;-1.314;2023-03-14T07:39:54;98811.93;;;-5.03;100.00
36454;BME280;22478;51.740;-1.314;2023-03-14T07:42:21;98829.85;;;-4.21;100.00
36454;BME280;22478;51.740;-1.314;2023-03-14T07:44:49;98840.57;;;-5.50;100.00
36454;BME280;22478;51.740;-1.314;2023-03-14T07:47:16;98850.25;;;-5.35;100.00
36454;BME280;22478;51.740;-1.314;2023-03-14T07:49:43;98858.42;;;-4.03;100.00
36454;BME280;22478;51.740;-1.314;2023-03-14T07:52:10;98873.55;;;-5.05;100.00
36454;BME280;22478;51.740;-1.314;2023-03-14T07:54:37;98879.05;;;-4.48;100.00
36454;BME280;22478;51.740;-1.314;2023-03-14T07:57:05;98881.08;;;-3.55;100.00
36454;BME280;22478;51.740;-1.314;2023-03-14T07:59:32;98898.10;;;-4.26;100.00
36454;BME280;22478;51.740;-1.314;2023-03-14T08:01:59;98912.06;;;-4.60;100.00
36454;BME280;22478;51.740;-1.314;2023-03-14T08:04:25;98917.31;;;-4.22;100.00
36454;BME280;22478;51.740;-1.314;2023-03-14T08:06:52;98931.54;;;-3.82;100.00
36454;BME280;22478;51.740;-1.314;2023-03-14T08:09:20;98936.88;;;-4.56;100.00
36454;BME280;22478;51.740;-1.314;2023-03-14T08:11:47;98954.05;;;-4.66;100.00
36454;BME280;22478;51.740;-1.314;2023-03-14T08:14:14;98964.58;;;-3.96;100.00
36454;BME280;22478;51.740;-1.314;2023-03-14T08:16:41;98975.42;;;-4.88;100.00
36454;BME280;22478;51.740;-1.314;2023-03-14T08:19:08;98981.68;;;-3.98;100.00
36454;BME280;22478;51.740;-1.314;2023-03-14T08:21:35;98987.93;;;-4.06;100.00
36454;BME280;22478;51.740;-1.314;2023-03-14T08:24:03;98999.57;;;-4.11;100.00
36454;BME280;22478;51.740;-1.314;2023-03-14T08:26:30;99012.96;;;-3.85;100.00
36454;BME280;22478;51.740;-1.314;2023-03-14T08:28:57;99012.34;;;-3.93;100.00
36454;BME280;22478;51.740;-1.314;2023-03-14T08:31:25;99020.77;;;-4.18;100.00
36454;BME280;22478;51.740;-1.314;2023-03-14T08:33:52;99023.00;;;-4.90;100.00
36454;BME280;22478;51.740;-1.314;2023-03-14T08:36:20;99045.44;;;-4.71;100.00
36454;BME280;22478;51.740;-1.314;2023-03-14T08:38:47;99044.10;;;-3.31;100.00
36454;BME280;22478;51.740;-1.314;2023-03-14T08:41:13;99063.14;;;-4.37;100.00
36454;BME280;22478;51.740;-1.314;2023-03-14T08:43:41;99070.53;;;-3.80;100.00
36454;BME280;22478;51.740;-1.314;2023-03-14T08:46:08;99071.92;;;-4.70;100.00
36454;BME280;22478;51.740;-1.314;2023-03-14T08:48:35;99087.21;;;-4.91;100.00
36454;BME280;22478;51.740;-1.314;2023-03-14T08:51:07;99082.74;;;-4.09;100.00
36454;BME280;22478;51.740;-1.314;2023-03-14T08:53:34;99097.04;;;-4.14;100.00
36454;BME280;22478;51.740;-1.314;2023-03-14T08:56:02;99109.58;;;-4.77;100.00
36454;BME280;22478;51.740;-1.314;2023-03-14T08:58:29;99119.83;;;-5.66;100.00
36454;BME280;22478;51.740;-1.314;2023-03-14T09:00:56;99126.33;;;-4.39;100.00
36454;BME280;22478;51.740;-1.314;2023-03-14T09:03:23;99134.51;;;-4.64;100.00
36454;BME280;22478;51.740;-1.314;2023-03-14T09:05:51;99139.40;;;-1.98;100.00
36454;BME280;22478;51.740;-1.314;2023-03-14T09:08:18;99148.24;;;-4.29;100.00
36454;BME280;22478;51.740;-1.314;2023-03-14T09:10:46;99153.21;;;-3.78;100.00
36454;BME280;22478;51.740;-1.314;2023-03-14T09:13:13;99153.67;;;-4.42;100.00
36454;BME280;22478;51.740;-1.314;2023-03-14T09:15:40;99158.87;;;-5.06;100.00
36454;BME280;22478;51.740;-1.314;2023-03-14T09:18:08;99162.87;;;-3.54;100.00
36454;BME280;22478;51.740;-1.314;2023-03-14T09:20:35;99171.48;;;-5.19;100.00
36454;BME280;22478;51.740;-1.314;2023-03-14T09:23:02;99184.82;;;-5.08;100.00
36454;BME280;22478;51.740;-1.314;2023-03-14T09:25:30;99188.24;;;-4.54;100.00
36454;BME280;22478;51.740;-1.314;2023-03-14T09:27:56;99195.34;;;-3.75;100.00
36454;BME280;22478;51.740;-1.314;2023-03-14T09:30:24;99196.70;;;-4.04;100.00
36454;BME280;22478;51.740;-1.314;2023-03-14T09:32:51;99198.13;;;-3.83;100.00
36454;BME280;22478;51.740;-1.314;2023-03-14T09:35:18;99208.92;;;-2.04;100.00
36454;BME280;22478;51.740;-1.314;2023-03-14T09:37:45;99216.69;;;-3.29;100.00
36454;BME280;22478;51.740;-1.314;2023-03-14T09:40:15;99225.25;;;-3.51;100.00
36454;BME280;22478;51.740;-1.314;2023-03-14T09:42:42;99231.61;;;-3.70;100.00
36454;BME280;22478;51.740;-1.314;2023-03-14T09:45:14;99234.35;;;-4.45;100.00
36454;BME280;22478;51.740;-1.314;2023-03-14T09:47:44;99244.84;;;-2.40;100.00
36454;BME280;22478;51.740;-1.314;2023-03-14T09:50:14;99252.59;;;-3.93;100.00
36454;BME280;22478;51.740;-1.314;2023-03-14T09:52:44;99256.51;;;-3.08;100.00
36454;BME280;22478;51.740;-1.314;2023-03-14T09:55:16;99264.49;;;-2.45;100.00
36454;BME280;22478;51.740;-1.314;2023-03-14T09:57:45;99257.32;;;-1.10;100.00
36454;BME280;22478;51.740;-1.314;2023-03-14T10:00:16;99267.61;;;-2.24;100.00
36454;BME280;22478;51.740;-1.314;2023-03-14T10:02:49;99264.37;;;-2.22;100.00
36454;BME280;22478;51.740;-1.314;2023-03-14T10:05:21;99268.32;;;-0.15;100.00
36454;BME280;22478;51.740;-1.314;2023-03-14T10:07:48;99281.14;;;-0.48;100.00
36454;BME280;22478;51.740;-1.314;2023-03-14T10:10:18;99280.66;;;-0.19;100.00
36454;BME280;22478;51.740;-1.314;2023-03-14T10:12:47;99289.81;;;-0.35;100.00
36454;BME280;22478;51.740;-1.314;2023-03-14T10:15:16;99298.86;;;0.71;100.00
36454;BME280;22478;51.740;-1.314;2023-03-14T10:17:50;99304.48;;;1.74;100.00
36454;BME280;22478;51.740;-1.314;2023-03-14T10:20:34;99305.07;;;3.68;100.00
36454;BME280;22478;51.740;-1.314;2023-03-14T10:23:03;99307.80;;;0.61;100.00
36454;BME280;22478;51.740;-1.314;2023-03-14T10:25:32;99314.04;;;-0.04;100.00
36454;BME280;22478;51.740;-1.314;2023-03-14T10:28:00;99299.73;;;3.52;100.00
36454;BME280;22478;51.740;-1.314;2023-03-14T10:30:37;99311.83;;;2.83;100.00
36454;BME280;22478;51.740;-1.314;2023-03-14T10:33:10;99330.62;;;1.95;100.00
36454;BME280;22478;51.740;-1.314;2023-03-14T10:35:38;99337.96;;;-0.77;100.00
36454;BME280;22478;51.740;-1.314;2023-03-14T10:38:13;99341.23;;;0.87;100.00
36454;BME280;22478;51.740;-1.314;2023-03-14T10:40:46;99356.43;;;-0.43;100.00
36454;BME280;22478;51.740;-1.314;2023-03-14T10:43:17;99350.08;;;1.79;100.00
36454;BME280;22478;51.740;-1.314;2023-03-14T10:45:52;99361.25;;;1.68;100.00
36454;BME280;22478;51.740;-1.314;2023-03-14T10:48:22;99365.21;;;1.24;100.00
36454;BME280;22478;51.740;-1.314;2023-03-14T10:50:55;99365.34;;;3.50;100.00
36454;BME280;22478;51.740;-1.314;2023-03-14T10:53:23;99366.86;;;4.66;97.05
36454;BME280;22478;51.740;-1.314;2023-03-14T10:55:50;99384.54;;;1.65;100.00
36454;BME280;22478;51.740;-1.314;2023-03-14T10:58:21;99381.99;;;1.70;100.00
36454;BME280;22478;51.740;-1.314;2023-03-14T11:00:54;99400.88;;;-0.70;100.00
36454;BME280;22478;51.740;-1.314;2023-03-14T11:03:26;99404.59;;;-0.01;100.00
36454;BME280;22478;51.740;-1.314;2023-03-14T11:05:57;99425.15;;;-0.83;100.00
36454;BME280;22478;51.740;-1.314;2023-03-14T11:08:31;99432.96;;;-0.31;100.00
36454;BME280;22478;51.740;-1.314;2023-03-14T11:11:10;99439.48;;;-0.92;100.00
36454;BME280;22478;51.740;-1.314;2023-03-14T11:13:45;99430.77;;;1.96;100.00
36454;BME280;22478;51.740;-1.314;2023-03-14T11:16:25;99441.44;;;-0.99;100.00
36454;BME280;22478;51.740;-1.314;2023-03-14T11:19:08;99437.31;;;1.50;100.00
36454;BME280;22478;51.740;-1.314;2023-03-14T11:21:42;99445.27;;;0.15;100.00
36454;BME280;22478;51.740;-1.314;2023-03-14T11:24:28;99458.37;;;-1.45;100.00
36454;BME280;22478;51.740;-1.314;2023-03-14T11:27:05;99469.21;;;-1.08;100.00
36454;BME280;22478;51.740;-1.314;2023-03-14T11:29:40;99473.59;;;-1.39;100.00
36454;BME280;22478;51.740;-1.314;2023-03-14T11:32:13;99470.52;;;-0.83;100.00
36454;BME280;22478;51.740;-1.314;2023-03-14T11:34:45;99459.54;;;1.45;100.00
36454;BME280;22478;51.740;-1.314;2023-03-14T11:37:18;99452.43;;;2.31;100.00
36454;BME280;22478;51.740;-1.314;2023-03-14T11:39:54;99450.02;;;4.28;96.95
36454;BME280;22478;51.740;-1.314;2023-03-14T11:42:24;99462.36;;;3.62;100.00
36454;BME280;22478;51.740;-1.314;2023-03-14T11:44:54;99453.38;;;7.78;77.53
36454;BME280;22478;51.740;-1.314;2023-03-14T11:47:25;99463.02;;;4.53;83.72
36454;BME280;22478;51.740;-1.314;2023-03-14T11:49:59;99479.76;;;1.99;96.35
36454;BME280;22478;51.740;-1.314;2023-03-14T11:52:31;99470.42;;;6.24;79.19
36454;BME280;22478;51.740;-1.314;2023-03-14T11:55:04;99474.20;;;9.01;62.72
36454;BME280;22478;51.740;-1.314;2023-03-14T11:57:34;99491.51;;;5.23;77.03
36454;BME280;22478;51.740;-1.314;2023-03-14T12:00:04;99501.42;;;4.73;79.78
36454;BME280;22478;51.740;-1.314;2023-03-14T12:02:47;99494.27;;;3.59;72.90
36454;BME280;22478;51.740;-1.314;2023-03-14T12:05:31;99505.45;;;4.80;78.32
36454;BME280;22478;51.740;-1.314;2023-03-14T12:08:20;99493.09;;;6.96;60.84
36454;BME280;22478;51.740;-1.314;2023-03-14T12:10:52;99507.71;;;3.52;77.60
36454;BME280;22478;51.740;-1.314;2023-03-14T12:13:20;99513.34;;;2.47;77.19
36454;BME280;22478;51.740;-1.314;2023-03-14T12:15:50;99524.38;;;0.65;87.64
36454;BME280;22478;51.740;-1.314;2023-03-14T12:18:26;99524.41;;;2.45;82.87
36454;BME280;22478;51.740;-1.314;2023-03-14T12:20:56;99516.42;;;3.15;78.81
36454;BME280;22478;51.740;-1.314;2023-03-14T12:23:26;99528.16;;;1.24;86.76
36454;BME280;22478;51.740;-1.314;2023-03-14T12:26:27;99524.26;;;2.24;74.71
36454;BME280;22478;51.740;-1.314;2023-03-14T12:29:14;99527.46;;;2.55;71.42
36454;BME280;22478;51.740;-1.314;2023-03-14T12:31:43;99544.73;;;-0.37;79.60
36454;BME280;22478;51.740;-1.314;2023-03-14T12:34:30;99536.93;;;2.37;73.31
36454;BME280;22478;51.740;-1.314;2023-03-14T12:37:05;99540.02;;;0.83;88.70
36454;BME280;22478;51.740;-1.314;2023-03-14T12:39:43;99540.85;;;0.46;85.62
36454;BME280;22478;51.740;-1.314;2023-03-14T12:42:13;99536.64;;;3.10;84.64
36454;BME280;22478;51.740;-1.314;2023-03-14T12:44:46;99524.99;;;4.65;63.22
36454;BME280;22478;51.740;-1.314;2023-03-14T12:48:07;99538.86;;;1.77;80.92
36454;BME280;22478;51.740;-1.314;2023-03-14T12:50:40;99547.07;;;1.86;69.19
36454;BME280;22478;51.740;-1.314;2023-03-14T12:54:26;99547.27;;;2.67;64.41
36454;BME280;22478;51.740;-1.314;2023-03-14T12:57:09;99549.55;;;3.52;68.09